Latest Weather Observations for Mangrove Mountain

IDN60801

Issued at 5:03 pm EST Monday 6 July 2015 (issued every 30 minutes, with the page automatically refreshed every 10 minutes)

About weather observations | Map of weather stations | Latest weather observations for NSW | Other Formats
Station Details ID: 061375 Name: MANGROVE MOUNTAIN AWS Lat: -33.29 Lon: 151.21 Height: 305.0 m
Data from the previous 72 hours. | See also: Recent months at Mangrove Mountain
Date/Time
EST
Temp
°C
App
Temp
°C
Dew
Point
Rel
Hum
%
Delta-T
°C
Wind Press
QNH
hPa
Press
MSL
hPa
Rain
since 9 am
mm
Dir
 
Spd
km/h
Gust
km/h
Spd
kts
Gust
kts
06/05:00pm 10.7 7.8 2.5 57 3.6 W 7 13 4 7 - - 0.0
06/04:30pm 11.9 9.1 2.9 54 4.0 W 7 9 4 5 - - 0.0
06/04:00pm 14.0 11.2 2.9 47 5.0 WSW 7 13 4 7 - - 0.0
06/03:30pm 14.8 10.9 1.3 40 6.0 WNW 11 17 6 9 - - 0.0
06/03:00pm 15.2 11.7 1.4 39 6.1 WNW 9 13 5 7 - - 0.0
06/02:30pm 15.3 11.5 1.8 40 6.0 WNW 11 20 6 11 - - 0.0
06/02:00pm 14.8 10.4 0.6 38 6.2 NW 13 22 7 12 - - 0.0
06/01:30pm 14.7 10.0 0.9 39 6.0 NW 15 26 8 14 - - 0.0
06/01:00pm 14.4 11.0 2.0 43 5.5 WNW 9 17 5 9 - - 0.0
06/12:30pm 13.7 10.2 1.4 43 5.4 NW 9 17 5 9 - - 0.0
06/12:00pm 13.1 9.7 1.8 46 5.0 NW 9 15 5 8 - - 0.0
06/11:30am 12.3 8.1 1.9 49 4.5 NW 13 19 7 10 - - 0.0
06/11:00am 11.5 7.0 2.3 53 4.0 NW 15 22 8 12 - - 0.0
06/10:30am 10.5 5.7 0.5 50 4.2 NW 15 26 8 14 - - 0.0
06/10:00am 10.3 5.6 0.9 52 3.9 NW 15 24 8 13 - - 0.0
06/09:30am 9.4 4.8 -0.8 49 4.1 NW 13 22 7 12 - - 0.0
06/09:00am 8.9 4.8 -0.4 52 3.7 NW 11 20 6 11 - - 0.0
06/08:30am 8.1 3.5 -1.1 52 3.6 NW 13 19 7 10 - - -
06/08:00am 7.2 3.0 -1.0 56 3.2 NW 11 19 6 10 - - -
06/07:30am 6.0 2.5 -1.2 60 2.7 NW 7 13 4 7 - - -
06/07:00am 5.5 2.0 -1.0 63 2.5 WNW 7 11 4 6 - - -
06/06:30am 5.8 2.3 -1.1 61 2.6 NW 7 13 4 7 - - -
06/06:00am 5.8 2.3 -1.1 61 2.6 NW 7 11 4 6 - - -
06/05:30am 5.1 1.9 -0.3 68 2.1 WNW 6 13 3 7 - - -
06/05:00am 4.4 1.6 -0.6 70 1.9 WNW 4 7 2 4 - - -
06/04:30am 4.5 1.3 -0.5 70 1.9 WNW 6 7 3 4 - - -
06/04:00am 5.3 2.0 -0.9 64 2.4 WNW 6 9 3 5 - - -
06/03:30am 6.0 2.7 -0.9 61 2.6 NW 6 9 3 5 - - -
06/03:00am 6.1 2.9 -0.8 61 2.7 NW 6 11 3 6 - - 0.0
06/02:30am 6.3 3.1 -0.7 61 2.7 NW 6 9 3 5 - - -
06/02:00am 6.3 3.1 -0.2 63 2.5 NW 6 11 3 6 - - -
06/01:30am 6.3 3.5 -0.4 62 2.6 NW 4 7 2 4 - - -
06/01:00am 6.2 3.4 -0.5 62 2.6 WNW 4 6 2 3 - - -
06/12:30am 7.0 3.8 -0.2 60 2.8 WNW 6 9 3 5 - - -
06/12:00am 7.5 4.2 -0.2 58 3.1 WNW 7 9 4 5 - - -
 
Date/Time
EST
Temp
°C
App
Temp
°C
Dew
Point
Rel
Hum
%
Delta-T
°C
Wind Press
QNH
hPa
Press
MSL
hPa
Rain
since 9 am
mm
Dir
 
Spd
km/h
Gust
km/h
Spd
kts
Gust
kts
05/11:30pm 7.6 4.3 0.1 59 3.0 WNW 7 11 4 6 - - -
05/11:00pm 8.0 4.7 0.3 58 3.1 WNW 7 11 4 6 - - -
05/10:30pm 9.0 5.8 1.0 57 3.3 WNW 7 13 4 7 - - -
05/10:00pm 9.1 6.1 1.0 57 3.4 WNW 6 9 3 5 - - -
05/09:30pm 9.4 6.4 1.8 59 3.2 WNW 7 11 4 6 - - -
05/09:00pm 9.3 6.6 2.6 63 2.9 NW 6 9 3 5 - - -
05/08:30pm 9.1 6.4 2.7 64 2.8 WNW 6 9 3 5 - - -
05/08:00pm 9.9 7.2 2.7 61 3.1 NW 6 11 3 6 - - -
05/07:30pm 10.7 7.9 3.3 60 3.3 NW 7 13 4 7 - - -
05/07:00pm 10.3 7.7 3.3 62 3.1 NW 6 11 3 6 - - -
05/06:30pm 10.5 8.3 3.3 61 3.2 NW 4 7 2 4 - - -
05/06:00pm 10.7 8.5 3.5 61 3.2 NNW 4 6 2 3 - - -
05/05:30pm 12.3 9.9 4.3 58 3.7 NNW 6 11 3 6 - - -
05/05:00pm 12.3 10.3 4.5 59 3.6 N 4 7 2 4 - - -
05/04:30pm 14.1 11.7 4.4 52 4.5 NNW 6 9 3 5 - - -
05/04:00pm 15.3 12.8 3.5 45 5.5 NNW 6 7 3 4 - - -
05/03:00pm 16.4 13.3 1.3 36 6.8 NW 7 13 4 7 - - 0.0
05/02:00pm 15.7 12.4 -0.1 34 6.8 NW 7 13 4 7 - - 0.0
05/01:30pm 15.5 12.4 1.3 38 6.3 WNW 7 13 4 7 - - 0.0
05/01:00pm 14.7 10.6 -0.2 36 6.4 NW 11 17 6 9 - - 0.0
05/12:30pm 14.5 10.9 0.7 39 6.0 NW 9 15 5 8 - - 0.0
05/12:00pm 13.7 10.8 1.4 43 5.4 NW 6 11 3 6 - - 0.0
05/11:30am 13.0 10.0 2.3 48 4.7 NW 7 11 4 6 - - 0.0
05/11:00am 11.8 8.9 2.5 53 4.1 NNW 7 11 4 6 - - 0.0
05/10:30am 10.6 7.1 1.4 53 3.9 NW 9 13 5 7 - - 0.0
05/10:00am 9.5 6.4 1.4 57 3.4 NW 7 13 4 7 - - 0.0
05/09:30am 8.6 5.0 0.8 58 3.2 NW 9 13 5 7 - - 0.0
05/09:00am 7.9 4.7 0.9 61 2.9 NW 7 9 4 5 - - 0.0
05/08:30am 6.6 3.6 0.5 65 2.4 NW 6 9 3 5 - - 0.0
05/08:00am 4.7 1.7 0.5 74 1.6 NW 6 9 3 5 - - 0.0
05/07:30am 3.1 -0.2 0.0 80 1.2 NNW 7 9 4 5 - - 0.0
05/07:00am 2.1 -1.2 -0.2 85 0.9 NW 7 11 4 6 - - 0.0
05/06:30am 1.5 -1.8 -0.1 89 0.6 NW 7 9 4 5 - - 0.0
05/06:00am 1.8 -1.3 -0.1 87 0.7 NW 6 7 3 4 - - 0.0
05/05:30am 1.8 -1.3 0.2 89 0.6 NW 6 7 3 4 - - 0.0
05/05:00am 1.8 -1.3 -0.1 87 0.7 NW 6 7 3 4 - - 0.0
05/04:30am 2.3 -1.0 0.0 85 0.9 NW 7 7 4 4 - - 0.0
05/04:00am 2.8 -0.5 0.2 83 1.0 NW 7 9 4 5 - - 0.0
05/03:30am 2.3 -0.8 0.2 86 0.8 NW 6 7 3 4 - - 0.0
05/03:00am 2.4 -0.7 0.0 84 0.9 NW 6 7 3 4 - - 0.0
05/02:30am 2.8 -0.5 0.4 84 0.9 NW 7 9 4 5 - - 0.0
05/02:00am 1.8 -1.3 0.2 89 0.6 NW 6 7 3 4 - - 0.0
05/01:30am 1.7 -1.0 0.4 91 0.5 NW 4 6 2 3 - - 0.0
05/01:00am 2.0 -0.3 0.4 89 0.6 NW 2 4 1 2 - - 0.0
05/12:30am 3.0 0.1 1.4 89 0.6 NW 6 7 3 4 - - 0.0
05/12:00am 2.5 -0.1 1.0 90 0.6 NW 4 6 2 3 - - 0.0
 
Date/Time
EST
Temp
°C
App
Temp
°C
Dew
Point
Rel
Hum
%
Delta-T
°C
Wind Press
QNH
hPa
Press
MSL
hPa
Rain
since 9 am
mm
Dir
 
Spd
km/h
Gust
km/h
Spd
kts
Gust
kts
04/11:30pm 2.2 0.4 0.9 91 0.5 CALM 0 0 0 0 - - 0.0
04/11:00pm 2.7 0.9 0.9 88 0.7 CALM 0 0 0 0 - - 0.0
04/10:30pm 3.0 1.2 1.2 88 0.7 CALM 0 0 0 0 - - 0.0
04/10:00pm 3.4 1.6 1.1 85 0.9 CALM 0 0 0 0 - - 0.0
04/09:30pm 4.8 3.1 1.8 81 1.2 CALM 0 2 0 1 - - 0.0
04/09:00pm 4.9 2.9 2.3 83 1.1 ENE 2 4 1 2 - - 0.0
04/08:30pm 4.6 2.2 2.1 84 1.0 ENE 4 4 2 2 - - 0.0
04/08:00pm 4.5 2.8 1.9 83 1.1 CALM 0 0 0 0 - - 0.0
04/07:30pm 5.9 4.4 3.1 82 1.2 CALM 0 4 0 2 - - 0.0
04/07:00pm 5.1 2.7 2.3 82 1.2 E 4 4 2 2 - - 0.0
04/06:30pm 5.5 3.0 1.6 76 1.6 SE 4 6 2 3 - - 0.0
04/06:00pm 5.9 4.0 0.5 68 2.1 CALM 0 0 0 0 - - 0.0
04/05:30pm 6.9 5.0 0.8 65 2.5 CALM 0 0 0 0 - - 0.0
04/05:00pm 7.9 6.1 1.5 64 2.7 CALM 0 2 0 1 - - 0.0
04/04:30pm 11.3 9.2 1.8 52 4.1 W 2 2 1 1 - - 0.0
04/04:00pm 14.5 11.8 0.4 38 6.1 W 4 7 2 4 - - 0.0
04/03:30pm 14.9 11.4 -1.2 33 6.7 W 7 13 4 7 - - 0.0
04/03:00pm 15.3 11.9 -0.4 34 6.7 WNW 7 11 4 6 - - 0.0
04/02:30pm 14.2 10.4 -0.6 36 6.2 W 9 15 5 8 - - 0.0
04/02:00pm 14.7 10.4 -1.4 33 6.7 W 11 17 6 9 - - 0.0
04/01:30pm 15.0 10.4 -0.7 34 6.6 WNW 13 22 7 12 - - 0.0
04/01:00pm 14.0 9.4 -0.8 36 6.2 WNW 13 20 7 11 - - 0.0
04/12:30pm 13.5 9.3 -0.9 37 6.0 WNW 11 20 6 11 - - 0.0
04/12:00pm 13.0 8.1 -0.3 40 5.6 WNW 15 30 8 16 - - 0.0
04/11:30am 12.5 7.8 0.6 44 5.1 WNW 15 24 8 13 - - 0.0
04/11:00am 11.3 6.3 1.3 50 4.3 NW 17 26 9 14 - - 0.0
04/10:30am 10.3 6.4 3.3 62 3.1 WNW 13 24 7 13 - - 0.0
04/10:00am 9.6 5.5 4.6 71 2.3 NW 15 24 8 13 - - 0.0
04/09:30am 8.3 5.6 5.6 83 1.2 NW 9 15 5 8 - - 0.0
04/09:00am 6.5 3.7 5.1 91 0.6 NW 9 17 5 9 - - 0.2
04/08:30am 5.0 2.0 4.1 94 0.4 NW 9 15 5 8 - - 0.2
04/08:00am 4.7 2.4 4.7 100 0.0 NW 6 11 3 6 - - 0.2
04/07:30am 3.1 0.9 3.1 100 0.0 NW 4 6 2 3 - - 0.2
04/07:00am 2.5 0.5 2.4 99 0.0 NW 2 6 1 3 - - 0.2
04/06:30am 2.6 0.2 2.3 98 0.1 NW 4 6 2 3 - - 0.2
04/06:00am 3.0 0.3 2.7 98 0.1 NNW 6 7 3 4 - - 0.0
04/05:30am 3.0 0.3 2.6 97 0.2 NW 6 9 3 5 - - 0.0
04/05:00am 3.3 0.5 3.2 99 0.0 NW 7 9 4 5 - - 0.0
04/04:30am 2.6 0.3 2.5 99 0.0 WNW 4 6 2 3 - - 0.0
04/04:00am 2.4 0.4 2.3 99 0.0 NW 2 4 1 2 - - 0.0
04/03:30am 2.7 0.4 2.6 99 0.0 NNW 4 6 2 3 - - 0.0
04/03:00am 3.3 1.1 3.2 99 0.0 NW 4 6 2 3 - - 0.0
04/02:30am 3.9 2.2 3.8 99 0.0 NW 2 6 1 3 - - 0.0
04/02:00am 4.5 2.9 4.5 100 0.0 NNW 2 6 1 3 - - 0.0
04/01:30am 3.8 2.0 3.7 99 0.0 NNW 2 6 1 3 - - 0.0
04/01:00am 4.4 2.4 4.4 100 0.0 NNW 4 7 2 4 - - 0.0
04/12:30am 4.0 2.3 4.0 100 0.0 NNW 2 6 1 3 - - 0.0
04/12:00am 4.3 2.3 4.3 100 0.0 NW 4 6 2 3 - - 0.0
 
Date/Time
EST
Temp
°C
App
Temp
°C
Dew
Point
Rel
Hum
%
Delta-T
°C
Wind Press
QNH
hPa
Press
MSL
hPa
Rain
since 9 am
mm
Dir
 
Spd
km/h
Gust
km/h
Spd
kts
Gust
kts
03/11:30pm 3.8 1.6 3.4 97 0.2 NW 4 6 2 3 - - 0.0
03/11:00pm 3.7 1.7 2.5 92 0.5 NNW 2 4 1 2 - - 0.0
03/10:30pm 5.4 3.8 4.5 94 0.4 NE 2 6 1 3 - - 0.0
03/10:00pm 5.4 4.2 4.5 94 0.4 CALM 0 0 0 0 - - 0.0
03/09:30pm 4.8 3.5 4.1 95 0.3 CALM 0 0 0 0 - - 0.0
03/09:00pm 4.9 3.6 4.2 95 0.3 CALM 0 0 0 0 - - 0.0
03/08:30pm 5.3 4.0 4.3 93 0.4 CALM 0 0 0 0 - - 0.0
03/08:00pm 5.5 4.3 4.5 93 0.4 CALM 0 0 0 0 - - 0.0
03/07:30pm 6.2 5.2 5.5 95 0.3 CALM 0 0 0 0 - - 0.0
03/07:00pm 5.4 4.2 4.5 94 0.4 CALM 0 0 0 0 - - 0.0
03/06:30pm 5.9 4.8 5.0 94 0.4 CALM 0 0 0 0 - - 0.0
03/06:00pm 6.2 5.0 4.8 91 0.6 CALM 0 2 0 1 - - 0.0
03/05:30pm 6.7 5.1 4.5 86 1.0 SE 2 7 1 4 - - 0.0

Other Formats:

Comma delimited format used in spreadsheet applications
http://www.bom.gov.au/fwo/IDN60801/IDN60801.95774.axf

JavaScript Object Notation format (JSON) in row-major order
http://www.bom.gov.au/fwo/IDN60801/IDN60801.95774.json